Time;durP1;ratioP1;P1;durP2;ratioP2;P2;SDS_P1;SDS_P2;PMS_P1;PMS_P2;Temp;Humidity;BMP_temperature;BMP_pressure;BME280_temperature;BME280_humidity;BME280_pressure;Samples;Min_cycle;Max_cycle;Signal;HPM_P1;HPM_P2
2021/10/20 00:00:39;;;;;;;19.88;13.10;;;16.30;99.90;;;;;;5114375;28;20476;-71
2021/10/20 00:03:04;;;;;;;21.52;13.95;;;16.30;99.90;;;;;;5115031;28;20115;-71
2021/10/20 00:05:30;;;;;;;21.13;12.75;;;16.20;99.90;;;;;;5114993;28;20067;-71
2021/10/20 00:07:56;;;;;;;19.38;13.27;;;16.20;99.90;;;;;;5114913;28;20524;-71
2021/10/20 00:10:21;;;;;;;20.38;13.65;;;16.20;99.90;;;;;;5114876;28;20114;-71
2021/10/20 00:12:49;;;;;;;22.55;14.63;;;16.10;99.90;;;;;;5113421;28;20036;-71
2021/10/20 00:15:18;;;;;;;20.98;13.25;;;16.10;99.90;;;;;;5114928;28;20436;-71
2021/10/20 00:17:44;;;;;;;19.48;12.57;;;16.20;99.90;;;;;;5114495;28;20044;-71
2021/10/20 00:20:14;;;;;;;21.35;14.70;;;16.10;99.90;;;;;;5113950;28;20071;-71
2021/10/20 00:22:41;;;;;;;17.70;12.48;;;16.10;99.90;;;;;;5113139;28;20058;-71
2021/10/20 00:25:08;;;;;;;19.50;13.32;;;16.20;99.90;;;;;;5114384;28;20035;-71
2021/10/20 00:27:34;;;;;;;17.98;13.05;;;16.10;99.90;;;;;;5114615;28;20114;-71
2021/10/20 00:29:59;;;;;;;17.33;12.23;;;16.10;99.90;;;;;;5114535;27;20063;-71
2021/10/20 00:32:25;;;;;;;20.67;12.80;;;16.00;99.90;;;;;;5115008;28;20046;-71
2021/10/20 00:34:51;;;;;;;17.52;13.05;;;16.10;99.90;;;;;;5114384;28;20122;-71
2021/10/20 00:37:16;;;;;;;20.13;12.88;;;16.10;99.90;;;;;;5114345;28;20082;-71
2021/10/20 00:39:42;;;;;;;17.88;13.05;;;16.20;99.90;;;;;;5112783;28;20047;-71
2021/10/20 00:42:08;;;;;;;17.38;12.90;;;16.20;99.90;;;;;;5113235;28;20040;-71
2021/10/20 00:44:52;;;;;;;16.77;11.98;;;16.20;99.90;;;;;;5114203;28;20503;-71
2021/10/20 00:47:18;;;;;;;17.38;13.57;;;16.10;99.90;;;;;;5113166;28;20100;-71
2021/10/20 00:49:44;;;;;;;16.75;12.60;;;16.20;99.90;;;;;;5112452;28;20043;-71
2021/10/20 00:52:10;;;;;;;18.38;12.23;;;16.20;99.90;;;;;;5114461;28;20046;-71
2021/10/20 00:54:38;;;;;;;17.67;12.23;;;16.20;99.90;;;;;;5114288;28;20035;-71
2021/10/20 00:57:05;;;;;;;16.27;13.05;;;16.20;99.90;;;;;;5113864;28;20039;-71
2021/10/20 00:59:32;;;;;;;17.75;12.38;;;16.20;99.90;;;;;;5113711;28;20503;-70
2021/10/20 01:01:58;;;;;;;14.35;11.27;;;16.20;99.90;;;;;;5114180;27;20040;-71
2021/10/20 01:04:24;;;;;;;16.08;11.88;;;16.20;99.90;;;;;;5114194;28;20570;-71
2021/10/20 01:06:51;;;;;;;16.27;11.48;;;16.20;99.90;;;;;;5113969;28;20084;-71
2021/10/20 01:09:16;;;;;;;17.75;12.32;;;16.40;99.90;;;;;;5113912;28;20110;-71
2021/10/20 01:11:42;;;;;;;15.55;11.60;;;16.30;99.90;;;;;;5112839;28;20135;-71
2021/10/20 01:14:08;;;;;;;16.88;11.07;;;16.30;99.90;;;;;;5114226;28;20054;-71
2021/10/20 01:16:33;;;;;;;18.27;12.40;;;16.30;99.90;;;;;;5112868;28;20168;-71
2021/10/20 01:18:59;;;;;;;15.82;10.95;;;16.30;99.90;;;;;;5113464;28;20047;-71
2021/10/20 01:21:25;;;;;;;13.45;10.48;;;16.30;99.90;;;;;;5114090;28;20032;-71
2021/10/20 01:23:51;;;;;;;14.02;10.95;;;16.20;99.90;;;;;;5114128;28;20028;-71
2021/10/20 01:26:17;;;;;;;18.85;10.32;;;16.30;99.90;;;;;;5114075;28;20380;-71
2021/10/20 01:28:43;;;;;;;13.32;10.52;;;16.40;99.90;;;;;;5113144;28;20050;-71
2021/10/20 01:31:10;;;;;;;14.65;10.38;;;16.30;99.90;;;;;;5114029;28;20450;-71
2021/10/20 01:33:36;;;;;;;12.38;9.43;;;16.20;99.90;;;;;;5112549;28;20043;-71
2021/10/20 01:36:02;;;;;;;13.25;10.02;;;16.30;99.90;;;;;;5113854;28;20038;-71
2021/10/20 01:38:28;;;;;;;12.82;9.85;;;16.30;99.90;;;;;;5113164;28;20083;-71
2021/10/20 01:40:53;;;;;;;18.45;11.32;;;16.30;99.90;;;;;;5112246;28;20554;-71
2021/10/20 01:43:19;;;;;;;11.80;10.02;;;16.30;99.90;;;;;;5113418;28;20080;-71
2021/10/20 01:45:45;;;;;;;12.88;9.48;;;16.30;99.90;;;;;;5112556;28;20039;-71
2021/10/20 01:48:10;;;;;;;14.55;9.88;;;16.20;99.90;;;;;;5113595;28;20453;-71
2021/10/20 01:50:36;;;;;;;13.18;9.05;;;16.30;99.90;;;;;;5113435;28;20043;-71
2021/10/20 01:53:03;;;;;;;10.63;8.68;;;16.30;99.90;;;;;;5112098;28;20047;-71
2021/10/20 01:55:28;;;;;;;15.13;9.45;;;16.30;99.90;;;;;;5112279;28;20119;-71
2021/10/20 01:57:54;;;;;;;13.30;9.32;;;16.40;99.90;;;;;;5113494;28;20172;-71
2021/10/20 02:00:20;;;;;;;14.32;10.45;;;16.30;99.90;;;;;;5113140;28;20074;-71
2021/10/20 02:02:45;;;;;;;13.00;9.88;;;16.30;99.90;;;;;;5113534;28;20468;-71
2021/10/20 02:05:13;;;;;;;12.57;9.50;;;16.30;99.90;;;;;;5113352;28;20512;-71
2021/10/20 02:07:39;;;;;;;12.75;9.05;;;16.30;99.90;;;;;;5113309;28;20389;-71
2021/10/20 02:10:10;;;;;;;13.55;8.50;;;16.30;99.90;;;;;;5113272;28;20613;-71
2021/10/20 02:12:36;;;;;;;14.23;10.13;;;16.20;99.90;;;;;;5112028;28;20118;-71
2021/10/20 02:15:03;;;;;;;13.85;8.77;;;16.30;99.90;;;;;;5113463;28;20126;-71
2021/10/20 02:17:28;;;;;;;12.38;9.30;;;16.30;99.90;;;;;;5112507;28;20048;-71
2021/10/20 02:19:54;;;;;;;12.95;8.68;;;16.20;99.90;;;;;;5111883;28;20032;-71
2021/10/20 02:22:19;;;;;;;13.52;9.57;;;16.20;99.90;;;;;;5113077;28;20406;-71
2021/10/20 02:24:45;;;;;;;12.93;9.73;;;16.10;99.90;;;;;;5114180;28;20027;-71
2021/10/20 02:27:11;;;;;;;10.55;8.60;;;16.10;99.90;;;;;;5117439;28;20040;-71
2021/10/20 02:29:36;;;;;;;14.55;9.65;;;16.00;99.90;;;;;;5116897;28;20039;-71
2021/10/20 02:32:02;;;;;;;11.30;8.95;;;16.00;99.90;;;;;;5117044;28;20039;-71
2021/10/20 02:34:28;;;;;;;14.63;9.50;;;16.10;99.90;;;;;;5116856;28;20612;-71
2021/10/20 02:36:53;;;;;;;9.68;8.43;;;16.00;99.90;;;;;;5116583;28;20043;-71
2021/10/20 02:39:19;;;;;;;14.13;9.30;;;15.90;99.90;;;;;;5114849;28;20067;-71
2021/10/20 02:41:45;;;;;;;10.68;7.80;;;15.90;99.90;;;;;;5116778;28;20043;-71
2021/10/20 02:44:10;;;;;;;12.65;8.65;;;15.80;99.90;;;;;;5117004;28;20085;-71
2021/10/20 02:46:36;;;;;;;13.90;8.93;;;15.80;99.90;;;;;;5115392;28;20044;-71
2021/10/20 02:49:02;;;;;;;13.50;8.75;;;15.80;99.90;;;;;;5116377;28;20449;-71
2021/10/20 02:51:29;;;;;;;11.98;8.32;;;15.70;99.90;;;;;;5115215;28;20047;-71
2021/10/20 02:53:57;;;;;;;11.68;8.82;;;15.70;99.90;;;;;;5117215;28;20357;-71
2021/10/20 02:56:22;;;;;;;13.13;9.45;;;15.70;99.90;;;;;;5116330;28;20043;-71
2021/10/20 02:58:48;;;;;;;12.13;9.50;;;15.60;99.90;;;;;;5115828;28;20048;-71
2021/10/20 03:01:14;;;;;;;13.20;9.35;;;15.60;99.90;;;;;;5116353;28;20118;-71
2021/10/20 03:03:39;;;;;;;15.95;10.35;;;15.50;99.90;;;;;;5116156;28;20032;-71
2021/10/20 03:06:05;;;;;;;10.93;8.57;;;15.50;99.90;;;;;;5116107;28;20124;-71
2021/10/20 03:08:31;;;;;;;11.23;8.20;;;15.50;99.90;;;;;;5115949;28;20039;-71
2021/10/20 03:10:56;;;;;;;17.88;9.80;;;15.40;99.90;;;;;;5116214;28;20043;-71
2021/10/20 03:13:22;;;;;;;15.05;9.93;;;15.40;99.90;;;;;;5115935;28;20381;-71
2021/10/20 03:15:48;;;;;;;12.43;9.38;;;15.30;99.90;;;;;;5116144;28;20540;-71
2021/10/20 03:18:13;;;;;;;14.40;10.30;;;15.40;99.90;;;;;;5115714;28;20496;-71
2021/10/20 03:20:39;;;;;;;13.77;10.32;;;15.30;99.90;;;;;;5114605;28;20094;-71
2021/10/20 03:23:04;;;;;;;16.42;9.23;;;15.30;99.90;;;;;;5115374;27;20043;-71
2021/10/20 03:25:30;;;;;;;16.00;10.00;;;15.20;99.90;;;;;;5115695;28;20036;-71
2021/10/20 03:27:56;;;;;;;15.52;10.07;;;15.20;99.90;;;;;;5116266;28;20115;-71
2021/10/20 03:30:22;;;;;;;13.48;9.38;;;15.40;99.90;;;;;;5114108;28;20089;-71
2021/10/20 03:32:49;;;;;;;12.18;8.55;;;15.40;99.90;;;;;;5115730;28;20040;-71
2021/10/20 03:35:16;;;;;;;14.77;9.65;;;15.30;99.90;;;;;;5115747;28;20102;-71
2021/10/20 03:37:42;;;;;;;12.32;10.15;;;15.30;99.90;;;;;;5115796;28;20081;-71
2021/10/20 03:40:09;;;;;;;16.30;9.68;;;15.20;99.90;;;;;;5115118;28;20514;-71
2021/10/20 03:42:35;;;;;;;16.52;10.63;;;15.30;99.90;;;;;;5115315;28;20039;-71
2021/10/20 03:45:02;;;;;;;13.60;10.20;;;15.30;99.90;;;;;;5116016;28;20051;-71
2021/10/20 03:47:27;;;;;;;18.48;10.27;;;15.20;99.90;;;;;;5115447;28;20055;-70
2021/10/20 03:49:53;;;;;;;14.45;10.32;;;15.20;99.90;;;;;;5113910;28;20047;-70
2021/10/20 03:52:20;;;;;;;14.32;10.63;;;15.30;99.90;;;;;;5115113;28;20114;-70
2021/10/20 03:54:46;;;;;;;12.85;9.50;;;15.20;99.90;;;;;;5114499;28;20047;-71
2021/10/20 03:57:11;;;;;;;14.07;10.40;;;15.30;99.90;;;;;;5115210;28;20051;-71
2021/10/20 03:59:37;;;;;;;15.50;10.32;;;15.20;99.90;;;;;;5113485;28;20068;-71
2021/10/20 04:02:03;;;;;;;14.63;10.95;;;15.20;99.90;;;;;;5115091;28;20051;-71
2021/10/20 04:04:29;;;;;;;15.48;9.88;;;15.10;99.90;;;;;;5114119;28;20372;-70
2021/10/20 04:06:54;;;;;;;16.40;10.93;;;15.10;99.90;;;;;;5115373;27;20040;-70
2021/10/20 04:09:20;;;;;;;16.15;10.20;;;15.20;99.90;;;;;;5114880;28;20118;-71
2021/10/20 04:11:46;;;;;;;17.70;11.30;;;15.20;99.90;;;;;;5114714;28;20457;-71
2021/10/20 04:14:11;;;;;;;13.93;10.38;;;15.20;99.90;;;;;;5114928;28;20043;-71
2021/10/20 04:16:37;;;;;;;17.45;11.43;;;15.10;99.90;;;;;;5114676;28;20388;-71
2021/10/20 04:19:05;;;;;;;14.43;10.50;;;15.10;99.90;;;;;;5113107;28;20047;-71
2021/10/20 04:21:31;;;;;;;17.73;11.68;;;15.20;99.90;;;;;;5114592;28;20042;-71
2021/10/20 04:23:57;;;;;;;15.32;11.57;;;15.10;99.90;;;;;;5114497;28;20112;-71
2021/10/20 04:26:23;;;;;;;15.80;11.02;;;15.10;99.90;;;;;;5114989;28;20042;-71
2021/10/20 04:28:48;;;;;;;23.98;12.40;;;15.20;99.90;;;;;;5112901;28;20054;-71
2021/10/20 04:31:14;;;;;;;16.92;11.38;;;15.20;99.90;;;;;;5114619;28;20038;-71
2021/10/20 04:33:39;;;;;;;16.50;10.80;;;15.20;99.90;;;;;;5114429;28;20552;-71
2021/10/20 04:36:05;;;;;;;14.60;10.73;;;15.20;99.90;;;;;;5114694;28;20035;-71
2021/10/20 04:38:31;;;;;;;17.02;11.02;;;15.20;99.90;;;;;;5113977;28;20088;-71
2021/10/20 04:40:56;;;;;;;16.02;10.95;;;15.20;99.90;;;;;;5114288;28;20089;-71
2021/10/20 04:43:22;;;;;;;17.02;11.45;;;15.20;99.90;;;;;;5113122;28;20039;-71
2021/10/20 04:45:48;;;;;;;16.38;11.45;;;15.30;99.90;;;;;;5114228;28;20071;-71
2021/10/20 04:48:13;;;;;;;14.95;11.32;;;15.30;99.90;;;;;;5114576;28;20040;-71
2021/10/20 04:50:39;;;;;;;16.20;11.63;;;15.30;99.90;;;;;;5114125;28;20396;-71
2021/10/20 04:53:05;;;;;;;16.83;10.77;;;15.30;99.90;;;;;;5113782;28;20043;-70
2021/10/20 04:55:31;;;;;;;14.50;11.13;;;15.30;99.90;;;;;;5113827;28;20040;-71
2021/10/20 04:57:56;;;;;;;17.30;11.07;;;15.20;99.90;;;;;;5113701;28;20047;-71
2021/10/20 05:00:24;;;;;;;17.67;11.07;;;15.30;99.90;;;;;;5113974;28;20119;-71
2021/10/20 05:02:51;;;;;;;15.60;11.52;;;15.30;99.90;;;;;;5114584;28;20042;-71
2021/10/20 05:05:17;;;;;;;20.80;12.55;;;15.40;99.90;;;;;;5114050;28;20492;-71
2021/10/20 05:07:50;;;;;;;18.48;12.38;;;15.40;99.90;;;;;;5112694;28;20051;-70
2021/10/20 05:10:17;;;;;;;15.55;10.98;;;15.50;99.90;;;;;;5113782;28;20039;-70
2021/10/20 05:12:43;;;;;;;18.20;11.32;;;15.50;99.90;;;;;;5113753;28;20127;-71
2021/10/20 05:15:09;;;;;;;21.67;12.30;;;15.40;99.90;;;;;;5113888;28;20040;-70
2021/10/20 05:17:34;;;;;;;16.92;12.05;;;15.40;99.90;;;;;;5113574;28;20036;-70
2021/10/20 05:20:01;;;;;;;16.70;11.65;;;15.50;99.90;;;;;;5113356;28;20035;-71
2021/10/20 05:22:26;;;;;;;13.88;11.70;;;15.60;99.90;;;;;;5114050;28;20108;-70
2021/10/20 05:24:52;;;;;;;17.67;12.05;;;15.60;99.90;;;;;;5112743;28;20475;-71
2021/10/20 05:27:18;;;;;;;20.65;12.70;;;15.60;99.90;;;;;;5112966;28;20051;-70
2021/10/20 05:29:43;;;;;;;16.77;12.27;;;15.50;99.90;;;;;;5112330;28;20392;-71
2021/10/20 05:32:09;;;;;;;19.00;11.68;;;15.50;99.90;;;;;;5112554;28;20395;-70
2021/10/20 05:34:34;;;;;;;21.88;12.60;;;15.50;99.90;;;;;;5112663;28;20054;-70
2021/10/20 05:37:00;;;;;;;18.83;12.57;;;15.70;99.90;;;;;;5113526;28;20040;-70
2021/10/20 05:39:25;;;;;;;21.05;14.02;;;15.60;99.90;;;;;;5112022;28;20440;-70
2021/10/20 05:41:51;;;;;;;17.60;12.70;;;15.60;99.90;;;;;;5112343;28;20043;-71
2021/10/20 05:44:17;;;;;;;17.35;12.98;;;15.60;99.90;;;;;;5113419;28;20035;-71
2021/10/20 05:46:45;;;;;;;18.75;12.45;;;15.70;99.90;;;;;;5113585;28;20036;-70
2021/10/20 05:49:11;;;;;;;19.45;13.48;;;15.70;99.90;;;;;;5113261;28;20484;-70
2021/10/20 05:51:37;;;;;;;19.23;13.13;;;15.70;99.90;;;;;;5113371;28;20035;-70
2021/10/20 05:54:02;;;;;;;20.58;12.70;;;15.70;99.90;;;;;;5113465;28;20092;-71
2021/10/20 05:56:28;;;;;;;18.17;12.68;;;15.80;99.90;;;;;;5113495;28;20046;-69
2021/10/20 05:58:54;;;;;;;20.17;12.82;;;15.70;99.90;;;;;;5113019;28;20126;-69
2021/10/20 06:01:23;;;;;;;20.67;13.18;;;15.80;99.90;;;;;;5115429;28;20088;-69
2021/10/20 06:03:51;;;;;;;20.45;13.05;;;15.90;99.90;;;;;;5117521;28;20040;-69
2021/10/20 06:06:17;;;;;;;19.40;13.05;;;15.90;99.90;;;;;;5117269;28;20399;-70
2021/10/20 06:08:43;;;;;;;18.20;13.23;;;15.90;99.90;;;;;;5116984;28;20036;-69
2021/10/20 06:11:08;;;;;;;22.85;13.73;;;15.90;99.90;;;;;;5117228;28;20502;-69
2021/10/20 06:13:34;;;;;;;20.08;13.60;;;16.00;99.90;;;;;;5115690;28;20044;-69
2021/10/20 06:15:59;;;;;;;23.08;14.07;;;16.00;99.90;;;;;;5117134;28;20042;-69
2021/10/20 06:18:28;;;;;;;19.55;13.10;;;16.00;99.90;;;;;;5117045;27;20039;-69
2021/10/20 06:20:55;;;;;;;19.35;13.30;;;16.10;99.90;;;;;;5115875;28;20058;-69
2021/10/20 06:23:21;;;;;;;21.20;13.48;;;16.10;99.90;;;;;;5115607;28;20040;-69
2021/10/20 06:25:46;;;;;;;21.77;13.23;;;16.00;99.90;;;;;;5117250;28;20085;-69
2021/10/20 06:28:12;;;;;;;19.85;14.40;;;16.00;99.90;;;;;;5116003;28;20088;-69
2021/10/20 06:30:38;;;;;;;19.30;13.43;;;16.10;99.90;;;;;;5115182;28;20043;-69
2021/10/20 06:33:03;;;;;;;19.33;12.93;;;16.00;99.90;;;;;;5116823;28;20071;-69
2021/10/20 06:35:30;;;;;;;18.77;12.43;;;16.10;99.90;;;;;;5116700;28;20406;-70
2021/10/20 06:37:56;;;;;;;21.55;13.93;;;16.10;99.90;;;;;;5116471;28;20039;-69
2021/10/20 06:40:22;;;;;;;19.20;12.98;;;16.00;99.90;;;;;;5116368;28;20492;-70
2021/10/20 06:42:48;;;;;;;17.02;11.77;;;16.10;99.90;;;;;;5116497;28;20039;-69
2021/10/20 06:45:13;;;;;;;20.10;13.05;;;16.20;99.90;;;;;;5116468;28;20051;-68
2021/10/20 06:47:39;;;;;;;21.33;13.82;;;16.30;99.90;;;;;;5116362;28;20040;-70
2021/10/20 06:50:05;;;;;;;18.85;12.98;;;16.20;99.90;;;;;;5116080;28;20040;-69
2021/10/20 06:52:31;;;;;;;20.63;13.00;;;16.20;99.90;;;;;;5116311;28;20040;-69
2021/10/20 06:54:56;;;;;;;18.88;13.32;;;16.30;99.90;;;;;;5115326;28;20085;-69
2021/10/20 06:57:22;;;;;;;16.88;12.77;;;16.30;99.90;;;;;;5116200;28;20105;-70
2021/10/20 06:59:48;;;;;;;17.88;13.70;;;16.40;99.90;;;;;;5115851;28;20071;-70
2021/10/20 07:02:13;;;;;;;18.58;13.30;;;16.40;99.90;;;;;;5116486;27;20028;-70
2021/10/20 07:04:39;;;;;;;21.40;13.68;;;16.30;99.90;;;;;;5115979;28;20426;-70
2021/10/20 07:07:09;;;;;;;23.55;13.88;;;16.30;99.90;;;;;;5115961;28;20063;-70
2021/10/20 07:09:35;;;;;;;21.20;14.75;;;16.30;99.90;;;;;;5115654;28;20499;-70
2021/10/20 07:12:01;;;;;;;21.63;13.80;;;16.20;99.90;;;;;;5115955;28;20071;-70
2021/10/20 07:14:26;;;;;;;21.98;14.68;;;16.20;99.90;;;;;;5116142;28;20048;-69
2021/10/20 07:16:52;;;;;;;21.33;14.43;;;16.30;99.90;;;;;;5114722;28;20039;-69
2021/10/20 07:19:17;;;;;;;22.60;15.05;;;16.20;99.90;;;;;;5115805;28;20047;-70
2021/10/20 07:21:43;;;;;;;20.20;14.70;;;16.20;99.90;;;;;;5115665;28;20036;-70
2021/10/20 07:24:08;;;;;;;23.23;15.70;;;16.20;99.90;;;;;;5115876;28;20134;-69
2021/10/20 07:26:34;;;;;;;22.10;15.35;;;16.20;99.90;;;;;;5115670;28;20047;-70
2021/10/20 07:29:00;;;;;;;23.83;15.93;;;16.20;99.90;;;;;;5115431;28;20377;-70
2021/10/20 07:31:29;;;;;;;23.75;16.42;;;16.10;99.90;;;;;;5115405;28;20085;-70
2021/10/20 07:33:59;;;;;;;22.80;15.55;;;16.10;99.90;;;;;;5097302;28;20039;-70
2021/10/20 07:36:26;;;;;;;24.35;16.63;;;15.90;99.90;;;;;;5114410;28;20053;-69
2021/10/20 07:38:52;;;;;;;25.30;16.83;;;15.90;99.90;;;;;;5115161;28;20491;-70
2021/10/20 07:41:18;;;;;;;23.08;16.15;;;15.90;99.90;;;;;;5114166;28;20040;-70
2021/10/20 07:43:44;;;;;;;24.65;15.38;;;15.90;99.90;;;;;;5115916;28;20070;-70
2021/10/20 07:46:09;;;;;;;22.45;14.75;;;15.80;99.90;;;;;;5114164;28;20424;-70
2021/10/20 07:48:35;;;;;;;21.67;13.60;;;15.80;99.90;;;;;;5113922;28;20035;-70
2021/10/20 07:51:00;;;;;;;18.10;13.40;;;15.80;99.90;;;;;;5114169;28;20484;-70
2021/10/20 07:53:26;;;;;;;21.35;13.82;;;15.90;99.90;;;;;;5115635;28;20031;-70
2021/10/20 07:55:52;;;;;;;20.63;12.73;;;15.90;99.90;;;;;;5113760;28;20045;-70
2021/10/20 07:58:17;;;;;;;19.63;11.88;;;15.90;99.90;;;;;;5114957;28;20079;-70
2021/10/20 08:00:43;;;;;;;18.83;12.40;;;16.00;99.90;;;;;;5115368;28;20387;-70
2021/10/20 08:03:08;;;;;;;14.65;11.20;;;15.90;99.90;;;;;;5115256;27;20094;-70
2021/10/20 08:05:34;;;;;;;17.42;11.00;;;16.00;99.90;;;;;;5115098;28;20040;-70
2021/10/20 08:08:00;;;;;;;16.30;11.48;;;16.00;99.90;;;;;;5115160;28;20048;-69
2021/10/20 08:10:27;;;;;;;16.25;11.30;;;16.10;99.90;;;;;;5115031;28;20043;-68
2021/10/20 08:12:55;;;;;;;16.58;11.05;;;16.20;99.90;;;;;;5115330;28;20039;-70
2021/10/20 08:15:21;;;;;;;15.35;11.68;;;16.10;99.90;;;;;;5114808;28;20369;-70
2021/10/20 08:17:47;;;;;;;19.52;11.65;;;16.10;99.90;;;;;;5114685;28;20038;-70
2021/10/20 08:20:19;;;;;;;15.57;12.38;;;16.30;99.90;;;;;;5114610;28;20111;-70
2021/10/20 08:22:45;;;;;;;17.35;11.48;;;16.20;99.90;;;;;;5096056;28;20123;-69
2021/10/20 08:25:11;;;;;;;16.95;11.65;;;16.30;99.90;;;;;;5115045;28;20353;-70
2021/10/20 08:27:38;;;;;;;17.30;12.48;;;16.30;99.90;;;;;;5114745;28;20122;-70
2021/10/20 08:30:05;;;;;;;14.82;9.80;;;16.30;99.90;;;;;;5113174;28;20069;-70
2021/10/20 08:32:31;;;;;;;16.27;10.82;;;16.30;99.90;;;;;;5096403;28;20044;-69
2021/10/20 08:34:56;;;;;;;14.98;10.88;;;16.40;99.90;;;;;;5113336;28;20450;-70
2021/10/20 08:37:22;;;;;;;14.60;10.52;;;16.40;99.90;;;;;;5114475;28;20079;-69
2021/10/20 08:39:48;;;;;;;15.75;10.52;;;16.40;99.90;;;;;;5113916;28;20487;-69
2021/10/20 08:42:14;;;;;;;14.40;10.38;;;16.50;99.90;;;;;;5114117;28;20027;-69
2021/10/20 08:44:39;;;;;;;15.57;9.77;;;16.40;99.90;;;;;;5114486;28;20043;-69
2021/10/20 08:47:07;;;;;;;13.98;9.48;;;16.40;99.90;;;;;;5113024;28;20429;-69
2021/10/20 08:49:34;;;;;;;12.60;9.35;;;16.40;99.90;;;;;;5114132;28;20537;-70
2021/10/20 08:52:00;;;;;;;15.13;9.35;;;16.30;99.90;;;;;;5113986;28;20039;-70
2021/10/20 08:54:25;;;;;;;15.00;9.25;;;16.40;99.90;;;;;;5114189;28;20038;-69
2021/10/20 08:56:51;;;;;;;12.65;9.30;;;16.40;99.90;;;;;;5114397;28;20039;-69
2021/10/20 08:59:18;;;;;;;10.93;8.75;;;16.40;99.90;;;;;;5113749;28;20361;-68
2021/10/20 09:01:44;;;;;;;13.40;9.30;;;16.40;99.90;;;;;;5113986;28;20058;-69
2021/10/20 09:04:10;;;;;;;16.27;10.13;;;16.40;99.90;;;;;;5112575;28;20039;-69
2021/10/20 09:06:36;;;;;;;12.82;9.05;;;16.50;99.90;;;;;;5113817;28;20046;-69
2021/10/20 09:09:06;;;;;;;14.25;9.63;;;16.40;99.90;;;;;;5112193;28;20047;-69
2021/10/20 09:11:33;;;;;;;12.40;8.95;;;16.50;99.90;;;;;;5112847;28;20063;-69
2021/10/20 09:14:11;;;;;;;12.13;9.07;;;16.50;99.90;;;;;;5114054;28;20089;-69
2021/10/20 09:16:38;;;;;;;12.88;8.43;;;16.50;99.90;;;;;;5113699;28;20118;-70
2021/10/20 09:19:17;;;;;;;11.15;7.50;;;16.50;99.90;;;;;;5113328;28;20051;-69
2021/10/20 09:22:09;;;;;;;12.90;8.75;;;16.50;99.90;;;;;;5112859;28;20084;-70
2021/10/20 09:24:38;;;;;;;13.02;8.48;;;16.50;99.90;;;;;;5113627;28;20074;-69
2021/10/20 09:27:05;;;;;;;12.65;7.65;;;16.50;99.90;;;;;;5112697;28;20040;-69
2021/10/20 09:29:33;;;;;;;11.80;8.00;;;16.60;99.90;;;;;;5113230;28;20447;-69
2021/10/20 09:31:59;;;;;;;12.30;8.25;;;16.60;99.90;;;;;;5113481;28;20071;-70
2021/10/20 09:34:36;;;;;;;12.48;8.48;;;16.50;99.90;;;;;;5116226;28;20086;-70
2021/10/20 09:37:06;;;;;;;11.63;9.10;;;16.40;99.90;;;;;;5117750;28;20115;-69
2021/10/20 09:39:33;;;;;;;11.18;8.05;;;16.40;99.90;;;;;;5117572;28;20119;-69
2021/10/20 09:42:10;;;;;;;11.15;8.70;;;16.40;99.90;;;;;;5118261;28;20036;-70
2021/10/20 09:44:50;;;;;;;12.40;8.48;;;16.50;99.90;;;;;;5117674;28;20031;-69
2021/10/20 09:47:16;;;;;;;11.18;8.15;;;16.50;99.90;;;;;;5116688;28;20031;-70
2021/10/20 09:49:51;;;;;;;11.52;8.75;;;16.60;99.90;;;;;;5116199;28;20050;-69
2021/10/20 09:52:20;;;;;;;12.00;9.07;;;16.60;99.90;;;;;;5117758;28;20106;-69
2021/10/20 09:54:46;;;;;;;11.27;8.43;;;16.60;99.90;;;;;;5117254;28;20047;-69
2021/10/20 09:57:14;;;;;;;12.10;8.73;;;16.50;99.90;;;;;;5116109;28;20390;-69
2021/10/20 09:59:41;;;;;;;10.90;8.10;;;16.50;99.90;;;;;;5117507;28;20036;-69
2021/10/20 10:02:08;;;;;;;12.23;9.52;;;16.50;99.90;;;;;;5103722;28;20047;-70
2021/10/20 10:04:36;;;;;;;14.63;9.48;;;16.60;99.90;;;;;;5110948;28;20467;-71
2021/10/20 10:07:03;;;;;;;13.40;9.48;;;16.60;99.90;;;;;;5117698;28;20057;-69
2021/10/20 10:09:29;;;;;;;11.35;8.57;;;16.60;99.90;;;;;;5117204;28;20075;-70
2021/10/20 10:11:58;;;;;;;14.85;9.50;;;16.60;99.90;;;;;;5115793;28;20487;-69
2021/10/20 10:14:31;;;;;;;15.02;9.90;;;16.70;99.90;;;;;;5116191;28;20047;-69
2021/10/20 10:17:02;;;;;;;13.02;9.90;;;16.70;99.90;;;;;;5116965;28;20043;-70
2021/10/20 10:19:31;;;;;;;18.88;9.90;;;16.70;99.90;;;;;;5116863;28;20071;-70
2021/10/20 10:21:58;;;;;;;12.40;9.23;;;16.80;99.90;;;;;;5116968;28;20399;-70
2021/10/20 10:24:33;;;;;;;12.38;8.68;;;16.80;99.90;;;;;;5117167;27;20092;-71
2021/10/20 10:27:01;;;;;;;11.10;8.77;;;16.80;99.90;;;;;;5115621;28;20035;-70
2021/10/20 10:29:28;;;;;;;11.93;9.00;;;16.70;99.90;;;;;;5116523;28;20039;-70
2021/10/20 10:31:57;;;;;;;9.60;8.48;;;16.70;99.90;;;;;;5116669;28;20036;-71
2021/10/20 10:34:30;;;;;;;11.18;9.30;;;16.60;99.90;;;;;;5117339;28;20126;-70
2021/10/20 10:36:59;;;;;;;11.38;8.27;;;16.60;99.90;;;;;;5117231;28;20460;-71
2021/10/20 10:39:26;;;;;;;13.07;9.02;;;16.60;99.90;;;;;;5098340;28;20043;-71
2021/10/20 10:41:58;;;;;;;12.05;9.75;;;16.60;99.90;;;;;;5115604;28;20039;-71
2021/10/20 10:44:26;;;;;;;10.80;8.50;;;16.60;99.90;;;;;;5116589;28;20037;-71
2021/10/20 10:47:06;;;;;;;10.82;8.75;;;16.70;99.90;;;;;;5116234;27;20035;-71
2021/10/20 10:49:38;;;;;;;12.63;8.68;;;16.70;99.90;;;;;;5116283;28;20036;-72
2021/10/20 10:52:20;;;;;;;11.55;8.65;;;16.80;99.90;;;;;;5116666;28;20040;-70
2021/10/20 10:54:57;;;;;;;9.55;8.07;;;16.80;99.90;;;;;;5116532;28;20071;-69
2021/10/20 10:57:34;;;;;;;9.27;7.90;;;16.80;99.90;;;;;;5114889;28;20127;-70
2021/10/20 11:00:24;;;;;;;8.48;7.60;;;17.00;99.90;;;;;;5115916;28;20035;-71
2021/10/20 11:02:57;;;;;;;9.32;8.15;;;17.00;99.90;;;;;;5116587;28;20047;-71
2021/10/20 11:05:31;;;;;;;11.38;8.10;;;16.80;99.90;;;;;;5115377;28;20082;-71
2021/10/20 11:08:09;;;;;;;10.82;7.15;;;16.90;99.90;;;;;;5116062;28;20044;-70
2021/10/20 11:10:40;;;;;;;10.27;8.00;;;16.80;99.90;;;;;;5115076;28;20044;-70
2021/10/20 11:13:06;;;;;;;10.25;7.75;;;16.90;99.90;;;;;;5114932;28;20035;-70
2021/10/20 11:15:33;;;;;;;10.35;9.25;;;16.90;99.90;;;;;;5116513;28;20043;-70
2021/10/20 11:17:59;;;;;;;13.43;11.13;;;16.80;99.90;;;;;;5116147;28;20093;-71
2021/10/20 11:20:28;;;;;;;12.45;10.20;;;16.70;99.90;;;;;;5115967;27;20038;-70
2021/10/20 11:22:56;;;;;;;14.60;9.98;;;16.60;99.90;;;;;;5116335;28;20372;-70
2021/10/20 11:25:23;;;;;;;10.63;9.52;;;16.60;99.90;;;;;;5114585;28;20540;-71
2021/10/20 11:27:54;;;;;;;12.20;9.95;;;16.50;99.90;;;;;;5115996;28;20484;-70
2021/10/20 11:30:22;;;;;;;10.57;9.48;;;16.60;99.90;;;;;;5114844;28;20044;-70
2021/10/20 11:32:48;;;;;;;11.75;10.35;;;16.40;99.90;;;;;;5115655;27;20039;-71
2021/10/20 11:35:23;;;;;;;12.23;10.65;;;16.50;99.90;;;;;;5115483;28;20039;-70
2021/10/20 11:37:59;;;;;;;12.13;10.02;;;16.40;99.90;;;;;;5115679;28;20031;-71
2021/10/20 11:40:30;;;;;;;13.50;11.60;;;16.50;99.90;;;;;;5114275;28;20043;-70
2021/10/20 11:42:55;;;;;;;12.98;10.98;;;16.40;99.90;;;;;;5115599;28;20039;-70
2021/10/20 11:45:21;;;;;;;12.55;10.50;;;16.50;99.90;;;;;;5115224;28;20403;-70
2021/10/20 11:47:47;;;;;;;16.05;10.98;;;16.60;99.90;;;;;;5115263;28;20039;-71
2021/10/20 11:50:16;;;;;;;16.17;11.40;;;16.60;99.90;;;;;;5114919;28;20071;-71
2021/10/20 11:52:42;;;;;;;14.18;10.02;;;16.60;99.90;;;;;;5115179;28;20344;-70
2021/10/20 11:55:10;;;;;;;11.68;9.63;;;16.60;99.90;;;;;;5115200;28;20040;-71
2021/10/20 11:57:37;;;;;;;14.60;10.27;;;16.70;99.90;;;;;;5114120;28;20048;-71
2021/10/20 12:00:05;;;;;;;10.95;8.98;;;16.70;99.90;;;;;;5114809;28;20100;-70
2021/10/20 12:02:32;;;;;;;13.07;9.23;;;16.80;99.90;;;;;;5114962;28;20498;-71
2021/10/20 12:04:59;;;;;;;11.32;8.82;;;16.80;99.90;;;;;;5115162;28;20077;-71
2021/10/20 12:07:29;;;;;;;13.57;8.35;;;16.70;99.90;;;;;;5114947;28;20483;-70
2021/10/20 12:09:58;;;;;;;12.35;8.57;;;16.90;99.90;;;;;;5114756;28;20067;-71
2021/10/20 12:12:24;;;;;;;13.63;9.25;;;16.80;99.90;;;;;;5113687;28;20047;-71
2021/10/20 12:14:53;;;;;;;11.38;7.70;;;16.80;99.90;;;;;;5115419;28;20043;-69
2021/10/20 12:17:19;;;;;;;14.55;8.13;;;16.80;99.90;;;;;;5114706;28;20035;-71
2021/10/20 12:19:45;;;;;;;15.85;7.75;;;16.80;99.90;;;;;;5113545;28;20042;-72
2021/10/20 12:22:14;;;;;;;11.05;7.47;;;17.00;99.90;;;;;;5114797;28;20079;-70
2021/10/20 12:24:49;;;;;;;9.52;7.88;;;17.00;99.90;;;;;;5114911;28;20039;-72
2021/10/20 12:27:17;;;;;;;9.68;6.95;;;17.00;99.90;;;;;;5113647;28;20044;-73
2021/10/20 12:29:46;;;;;;;11.02;6.80;;;17.00;99.90;;;;;;5114264;28;20039;-71